Time;durP1;ratioP1;P1;durP2;ratioP2;P2;SDS_P1;SDS_P2;PMS_P1;PMS_P2;Temp;Humidity;BMP_temperature;BMP_pressure;BME280_temperature;BME280_humidity;BME280_pressure;Samples;Min_cycle;Max_cycle;Signal;HPM_P1;HPM_P2
2023/09/18 00:02:06;;;;;;;3.13;2.70;;;;;;;;;;4950627;28;20256;-76
2023/09/18 00:04:33;;;;;;;2.70;2.50;;;;;;;;;;4950399;29;20216;-76
2023/09/18 00:06:59;;;;;;;2.90;2.60;;;;;;;;;;4950193;28;20217;-76
2023/09/18 00:09:26;;;;;;;3.03;2.83;;;;;;;;;;4951095;29;20267;-76
2023/09/18 00:11:52;;;;;;;3.90;2.67;;;;;;;;;;4950461;29;20606;-76
2023/09/18 00:14:18;;;;;;;3.93;2.80;;;;;;;;;;4950243;28;20205;-75
2023/09/18 00:16:44;;;;;;;4.60;2.53;;;;;;;;;;4949798;29;20208;-77
2023/09/18 00:19:11;;;;;;;3.77;2.70;;;;;;;;;;4949800;29;20230;-76
2023/09/18 00:21:37;;;;;;;3.43;2.80;;;;;;;;;;4950381;29;20318;-76
2023/09/18 00:24:04;;;;;;;3.13;2.80;;;;;;;;;;4950229;28;20231;-76
2023/09/18 00:26:30;;;;;;;2.90;2.60;;;;;;;;;;4949892;29;20186;-76
2023/09/18 00:28:57;;;;;;;3.17;2.67;;;;;;;;;;4949579;28;20286;-76
2023/09/18 00:31:23;;;;;;;3.53;2.43;;;;;;;;;;4950819;29;20728;-76
2023/09/18 00:33:49;;;;;;;4.10;2.43;;;;;;;;;;4954220;28;20251;-76
2023/09/18 00:36:15;;;;;;;4.63;2.73;;;;;;;;;;4954113;28;20237;-76
2023/09/18 00:38:41;;;;;;;3.30;2.60;;;;;;;;;;4953573;29;20244;-76
2023/09/18 00:41:08;;;;;;;2.90;2.63;;;;;;;;;;4954105;28;20285;-76
2023/09/18 00:43:34;;;;;;;2.87;2.60;;;;;;;;;;4952402;29;20200;-76
2023/09/18 00:46:00;;;;;;;2.70;2.50;;;;;;;;;;4953825;28;20196;-76
2023/09/18 00:48:28;;;;;;;2.87;2.47;;;;;;;;;;4953651;28;20259;-76
2023/09/18 00:50:54;;;;;;;2.97;2.70;;;;;;;;;;4953857;29;20193;-76
2023/09/18 00:53:22;;;;;;;2.97;2.63;;;;;;;;;;4952545;29;20221;-76
2023/09/18 00:55:49;;;;;;;3.43;2.60;;;;;;;;;;4953734;28;20276;-76
2023/09/18 00:58:16;;;;;;;3.50;2.60;;;;;;;;;;4953206;28;20237;-76
2023/09/18 01:00:42;;;;;;;2.80;2.50;;;;;;;;;;4952164;29;20187;-76
2023/09/18 01:03:09;;;;;;;5.33;2.90;;;;;;;;;;4950267;29;20713;-76
2023/09/18 01:05:35;;;;;;;2.97;2.67;;;;;;;;;;4949013;29;20276;-76
2023/09/18 01:08:02;;;;;;;3.13;2.50;;;;;;;;;;4953054;28;20215;-76
2023/09/18 01:10:33;;;;;;;3.83;2.53;;;;;;;;;;4951566;29;20193;-76
2023/09/18 01:13:05;;;;;;;2.87;2.57;;;;;;;;;;4951117;29;20191;-76
2023/09/18 01:15:35;;;;;;;4.17;2.93;;;;;;;;;;4953454;28;20192;-76
2023/09/18 01:18:03;;;;;;;5.50;2.73;;;;;;;;;;4951446;29;20221;-76
2023/09/18 01:20:29;;;;;;;2.97;2.40;;;;;;;;;;4953017;28;20195;-76
2023/09/18 01:22:55;;;;;;;4.97;2.80;;;;;;;;;;4953443;29;20191;-76
2023/09/18 01:25:21;;;;;;;3.00;2.70;;;;;;;;;;4952985;29;20218;-76
2023/09/18 01:27:47;;;;;;;3.87;2.30;;;;;;;;;;4951626;29;20270;-76
2023/09/18 01:30:15;;;;;;;3.87;2.60;;;;;;;;;;4951679;29;21014;-76
2023/09/18 01:32:43;;;;;;;3.83;2.60;;;;;;;;;;4951698;29;20209;-76
2023/09/18 01:35:10;;;;;;;3.63;2.77;;;;;;;;;;4948752;29;20254;-76
2023/09/18 01:37:36;;;;;;;2.63;2.43;;;;;;;;;;4951161;29;20209;-76
2023/09/18 01:40:06;;;;;;;3.00;2.80;;;;;;;;;;4949902;28;20236;-76
2023/09/18 01:42:34;;;;;;;7.27;2.90;;;;;;;;;;4951146;29;20210;-76
2023/09/18 01:45:00;;;;;;;4.20;2.83;;;;;;;;;;4952515;29;20205;-76
2023/09/18 01:47:29;;;;;;;5.20;3.10;;;;;;;;;;4952481;28;20205;-76
2023/09/18 01:49:55;;;;;;;4.53;2.83;;;;;;;;;;4952809;29;20188;-76
2023/09/18 01:52:21;;;;;;;3.90;2.57;;;;;;;;;;4952844;29;20189;-77
2023/09/18 01:54:48;;;;;;;4.00;2.63;;;;;;;;;;4951422;29;20275;-76
2023/09/18 01:57:14;;;;;;;2.87;2.50;;;;;;;;;;4953197;29;20209;-76
2023/09/18 01:59:41;;;;;;;3.20;2.80;;;;;;;;;;4950362;29;20189;-76
2023/09/18 02:02:09;;;;;;;5.03;2.80;;;;;;;;;;4951246;29;20195;-76
2023/09/18 02:04:35;;;;;;;4.13;3.13;;;;;;;;;;4950103;29;20300;-76
2023/09/18 02:07:02;;;;;;;3.80;3.07;;;;;;;;;;4966985;28;20209;-76
2023/09/18 02:09:28;;;;;;;3.50;2.77;;;;;;;;;;4934648;29;20851;-76
2023/09/18 02:11:54;;;;;;;4.53;2.90;;;;;;;;;;4933199;29;20192;-76
2023/09/18 02:14:20;;;;;;;3.53;3.10;;;;;;;;;;4951065;29;20294;-76
2023/09/18 02:16:46;;;;;;;4.73;3.07;;;;;;;;;;4951605;29;20206;-76
2023/09/18 02:19:13;;;;;;;4.70;3.40;;;;;;;;;;4951919;28;20580;-76
2023/09/18 02:21:40;;;;;;;4.17;3.17;;;;;;;;;;4950356;29;20196;-76
2023/09/18 02:24:07;;;;;;;5.00;3.63;;;;;;;;;;4950532;29;20238;-76
2023/09/18 02:26:33;;;;;;;4.97;3.80;;;;;;;;;;4952037;29;20194;-76
2023/09/18 02:29:00;;;;;;;5.73;3.63;;;;;;;;;;4966925;28;20553;-76
2023/09/18 02:31:27;;;;;;;4.83;3.60;;;;;;;;;;4950919;29;20182;-76
2023/09/18 02:33:54;;;;;;;4.80;3.43;;;;;;;;;;4933236;29;20570;-76
2023/09/18 02:36:20;;;;;;;4.17;3.50;;;;;;;;;;4952202;29;20200;-76
2023/09/18 02:38:48;;;;;;;3.87;3.20;;;;;;;;;;4950150;29;20239;-76
2023/09/18 02:41:15;;;;;;;4.40;3.00;;;;;;;;;;4950475;29;20182;-76
2023/09/18 02:43:41;;;;;;;4.87;3.27;;;;;;;;;;4951444;28;20307;-76
2023/09/18 02:46:07;;;;;;;6.03;2.80;;;;;;;;;;4948402;29;20635;-77
2023/09/18 02:48:33;;;;;;;3.73;2.90;;;;;;;;;;4948598;29;20212;-77
2023/09/18 02:51:00;;;;;;;3.33;2.80;;;;;;;;;;4948863;29;20187;-76
2023/09/18 02:53:26;;;;;;;4.23;2.83;;;;;;;;;;4934884;29;20193;-76
2023/09/18 02:55:54;;;;;;;4.90;2.83;;;;;;;;;;4950954;29;20197;-76
2023/09/18 02:58:20;;;;;;;4.43;3.30;;;;;;;;;;4950353;29;20236;-76
2023/09/18 03:00:48;;;;;;;5.43;3.23;;;;;;;;;;4951554;28;20189;-76
2023/09/18 03:03:14;;;;;;;5.63;2.90;;;;;;;;;;4939560;29;20195;-76
2023/09/18 03:05:41;;;;;;;5.53;3.30;;;;;;;;;;4951770;28;20205;-76
2023/09/18 03:08:08;;;;;;;3.87;2.70;;;;;;;;;;4950961;28;20209;-76
2023/09/18 03:10:35;;;;;;;5.63;2.87;;;;;;;;;;4947021;29;20189;-76
2023/09/18 03:13:04;;;;;;;4.90;2.90;;;;;;;;;;4949164;29;20194;-76
2023/09/18 03:15:31;;;;;;;4.13;2.77;;;;;;;;;;4950204;29;20190;-76
2023/09/18 03:17:58;;;;;;;6.87;3.03;;;;;;;;;;4949686;29;20319;-76
2023/09/18 03:20:24;;;;;;;5.60;2.97;;;;;;;;;;4934130;29;20649;-76
2023/09/18 03:22:51;;;;;;;6.40;2.90;;;;;;;;;;4950065;29;20252;-76
2023/09/18 03:25:18;;;;;;;4.40;2.67;;;;;;;;;;4951237;28;20304;-76
2023/09/18 03:27:44;;;;;;;4.83;2.57;;;;;;;;;;4949677;29;20604;-76
2023/09/18 03:30:12;;;;;;;4.37;3.03;;;;;;;;;;4950999;28;20192;-76
2023/09/18 03:32:39;;;;;;;5.30;2.97;;;;;;;;;;4950097;29;20189;-76
2023/09/18 03:35:05;;;;;;;3.67;2.60;;;;;;;;;;4949997;29;20197;-76
2023/09/18 03:37:31;;;;;;;5.50;2.77;;;;;;;;;;4946467;29;20232;-76
2023/09/18 03:39:58;;;;;;;5.67;3.00;;;;;;;;;;4947024;29;20695;-77
2023/09/18 03:42:24;;;;;;;5.97;3.07;;;;;;;;;;4950090;29;20973;-76
2023/09/18 03:44:50;;;;;;;5.93;2.93;;;;;;;;;;4949837;29;20649;-76
2023/09/18 03:47:16;;;;;;;4.37;3.00;;;;;;;;;;4949986;29;20205;-76
2023/09/18 03:49:42;;;;;;;4.80;2.93;;;;;;;;;;4946679;29;20241;-76
2023/09/18 03:52:09;;;;;;;6.27;2.80;;;;;;;;;;4946653;29;20564;-76
2023/09/18 03:54:35;;;;;;;3.50;3.00;;;;;;;;;;4946123;29;20194;-76
2023/09/18 03:57:01;;;;;;;5.77;3.10;;;;;;;;;;4947884;29;20209;-76
2023/09/18 03:59:27;;;;;;;6.87;3.00;;;;;;;;;;4950799;28;20244;-76
2023/09/18 04:01:53;;;;;;;8.77;3.27;;;;;;;;;;4951139;28;20185;-76
2023/09/18 04:04:19;;;;;;;7.00;3.23;;;;;;;;;;4933317;29;20633;-76
2023/09/18 04:06:46;;;;;;;8.10;3.87;;;;;;;;;;4946276;29;20666;-76
2023/09/18 04:09:12;;;;;;;7.70;3.30;;;;;;;;;;4949060;29;20285;-76
2023/09/18 04:11:38;;;;;;;6.23;3.43;;;;;;;;;;4949830;29;20181;-76
2023/09/18 04:14:05;;;;;;;7.97;3.37;;;;;;;;;;4947480;29;20256;-76
2023/09/18 04:16:31;;;;;;;10.17;3.60;;;;;;;;;;4950677;28;20244;-76
2023/09/18 04:18:57;;;;;;;11.17;3.60;;;;;;;;;;4949558;29;20184;-76
2023/09/18 04:21:25;;;;;;;8.53;3.77;;;;;;;;;;4949491;29;20197;-76
2023/09/18 04:23:55;;;;;;;8.73;4.03;;;;;;;;;;4951025;28;20197;-76
2023/09/18 04:26:22;;;;;;;9.60;3.73;;;;;;;;;;4950082;29;20208;-76
2023/09/18 04:28:48;;;;;;;11.97;4.07;;;;;;;;;;4950094;28;20260;-76
2023/09/18 04:31:16;;;;;;;8.23;3.90;;;;;;;;;;4948302;29;20187;-76
2023/09/18 04:33:42;;;;;;;9.03;4.20;;;;;;;;;;4949835;29;20219;-76
2023/09/18 04:36:08;;;;;;;9.20;4.43;;;;;;;;;;4950924;28;20181;-76
2023/09/18 04:38:34;;;;;;;14.87;3.90;;;;;;;;;;4949350;29;20227;-76
2023/09/18 04:41:01;;;;;;;8.40;3.97;;;;;;;;;;4948944;29;20186;-75
2023/09/18 04:43:29;;;;;;;9.27;4.00;;;;;;;;;;4960422;28;20291;-76
2023/09/18 04:45:56;;;;;;;9.93;4.10;;;;;;;;;;4949717;29;20221;-76
2023/09/18 04:48:22;;;;;;;7.70;3.70;;;;;;;;;;4949545;29;20259;-76
2023/09/18 04:50:49;;;;;;;14.77;3.67;;;;;;;;;;4949306;29;20181;-76
2023/09/18 04:53:15;;;;;;;9.37;3.57;;;;;;;;;;4948057;29;20679;-76
2023/09/18 04:55:41;;;;;;;8.10;3.37;;;;;;;;;;4949867;29;20316;-76
2023/09/18 04:58:08;;;;;;;6.00;3.23;;;;;;;;;;4948872;29;20748;-76
2023/09/18 05:00:34;;;;;;;6.80;3.37;;;;;;;;;;4933262;29;20747;-76
2023/09/18 05:03:01;;;;;;;9.23;3.10;;;;;;;;;;4948298;29;20221;-76
2023/09/18 05:05:29;;;;;;;7.97;3.03;;;;;;;;;;4950196;28;20544;-76
2023/09/18 05:07:56;;;;;;;8.17;3.10;;;;;;;;;;4944647;29;20217;-76
2023/09/18 05:10:22;;;;;;;7.10;3.00;;;;;;;;;;4949866;29;20204;-75
2023/09/18 05:12:50;;;;;;;7.80;3.10;;;;;;;;;;4950141;28;20189;-75
2023/09/18 05:15:16;;;;;;;7.90;2.87;;;;;;;;;;4951054;28;20189;-75
2023/09/18 05:17:44;;;;;;;5.57;2.40;;;;;;;;;;4952504;28;20221;-76
2023/09/18 05:20:12;;;;;;;4.63;2.47;;;;;;;;;;4951116;28;20185;-76
2023/09/18 05:22:38;;;;;;;4.13;2.20;;;;;;;;;;4953634;28;20501;-76
2023/09/18 05:25:05;;;;;;;5.83;2.37;;;;;;;;;;4952151;29;20217;-82
2023/09/18 05:27:31;;;;;;;6.80;2.63;;;;;;;;;;4935542;29;20217;-80
2023/09/18 05:29:58;;;;;;;7.73;2.80;;;;;;;;;;4934991;29;20197;-80
2023/09/18 05:32:24;;;;;;;7.43;2.60;;;;;;;;;;4956087;28;20664;-82
2023/09/18 05:34:50;;;;;;;8.03;2.80;;;;;;;;;;4956061;29;20193;-80
2023/09/18 05:37:16;;;;;;;8.70;2.87;;;;;;;;;;4958369;28;20220;-80
2023/09/18 05:39:42;;;;;;;7.57;2.57;;;;;;;;;;4951610;29;20185;-78
2023/09/18 05:42:08;;;;;;;7.77;2.67;;;;;;;;;;4936165;29;20769;-82
2023/09/18 05:44:35;;;;;;;6.13;2.70;;;;;;;;;;4957736;29;20213;-80
2023/09/18 05:47:03;;;;;;;7.80;3.00;;;;;;;;;;4957215;28;20264;-80
2023/09/18 05:49:30;;;;;;;4.63;2.60;;;;;;;;;;4955478;28;20185;-80
2023/09/18 05:51:56;;;;;;;7.07;2.90;;;;;;;;;;4954457;28;20196;-79
2023/09/18 05:54:22;;;;;;;9.17;3.30;;;;;;;;;;4953806;29;20565;-78
2023/09/18 05:56:48;;;;;;;7.90;3.50;;;;;;;;;;4951832;29;20272;-80
2023/09/18 05:59:16;;;;;;;8.97;3.37;;;;;;;;;;4961002;28;20189;-79
2023/09/18 06:01:42;;;;;;;9.47;3.20;;;;;;;;;;4951211;29;20214;-79
2023/09/18 06:04:09;;;;;;;9.97;3.30;;;;;;;;;;4951665;28;20692;-79
2023/09/18 06:06:35;;;;;;;10.43;3.60;;;;;;;;;;4951329;28;20186;-80
2023/09/18 06:09:01;;;;;;;9.40;3.60;;;;;;;;;;4951758;29;20646;-79
2023/09/18 06:11:28;;;;;;;7.53;3.33;;;;;;;;;;4952838;29;20185;-80
2023/09/18 06:13:54;;;;;;;8.63;3.47;;;;;;;;;;4951057;29;20563;-79
2023/09/18 06:16:20;;;;;;;12.27;3.77;;;;;;;;;;4951133;29;20849;-80
2023/09/18 06:18:46;;;;;;;8.20;3.57;;;;;;;;;;4952128;28;20267;-79
2023/09/18 06:21:12;;;;;;;8.33;3.40;;;;;;;;;;4967695;28;20193;-80
2023/09/18 06:23:39;;;;;;;9.70;3.90;;;;;;;;;;4952380;28;20263;-79
2023/09/18 06:26:05;;;;;;;7.77;3.60;;;;;;;;;;4952323;28;20225;-79
2023/09/18 06:28:31;;;;;;;8.97;3.67;;;;;;;;;;4951975;28;20205;-79
2023/09/18 06:30:57;;;;;;;7.90;3.63;;;;;;;;;;4951842;29;20189;-79
2023/09/18 06:33:23;;;;;;;9.00;3.80;;;;;;;;;;4950791;29;20777;-79
2023/09/18 06:35:51;;;;;;;7.93;3.03;;;;;;;;;;4950264;29;20201;-80
2023/09/18 06:38:17;;;;;;;10.30;3.63;;;;;;;;;;4947653;28;20680;-80
2023/09/18 06:40:44;;;;;;;10.13;3.80;;;;;;;;;;4949353;28;20193;-80
2023/09/18 06:43:10;;;;;;;13.27;4.17;;;;;;;;;;4946663;29;20221;-80
2023/09/18 06:45:37;;;;;;;12.10;3.87;;;;;;;;;;4951528;29;20689;-80
2023/09/18 06:48:04;;;;;;;8.00;3.70;;;;;;;;;;4953034;28;20204;-81
2023/09/18 06:50:30;;;;;;;11.33;4.00;;;;;;;;;;4951257;29;20660;-81
2023/09/18 06:52:56;;;;;;;6.83;3.23;;;;;;;;;;4952707;29;20185;-81
2023/09/18 06:55:23;;;;;;;8.53;3.23;;;;;;;;;;4952711;28;20261;-80
2023/09/18 06:57:51;;;;;;;10.30;3.70;;;;;;;;;;4952466;28;20241;-80
2023/09/18 07:00:20;;;;;;;7.90;3.67;;;;;;;;;;4967413;28;20181;-80
2023/09/18 07:02:47;;;;;;;9.13;3.90;;;;;;;;;;4953013;29;20200;-80
2023/09/18 07:05:13;;;;;;;11.77;3.33;;;;;;;;;;4935436;29;20197;-80
2023/09/18 07:07:39;;;;;;;13.10;3.70;;;;;;;;;;4948207;29;20205;-80
2023/09/18 07:10:06;;;;;;;9.90;3.93;;;;;;;;;;4951918;28;20240;-80
2023/09/18 07:12:32;;;;;;;7.07;3.27;;;;;;;;;;4953044;29;20220;-80
2023/09/18 07:15:03;;;;;;;7.57;3.47;;;;;;;;;;4951738;29;20189;-80
2023/09/18 07:17:29;;;;;;;7.13;3.50;;;;;;;;;;4952463;29;20221;-80
2023/09/18 07:19:55;;;;;;;8.07;3.20;;;;;;;;;;4952241;29;20569;-80
2023/09/18 07:22:21;;;;;;;9.80;3.30;;;;;;;;;;4950790;29;20216;-80
2023/09/18 07:24:47;;;;;;;9.73;3.57;;;;;;;;;;4957497;29;20260;-80
2023/09/18 07:27:13;;;;;;;8.57;3.80;;;;;;;;;;4955755;29;20669;-80
2023/09/18 07:29:39;;;;;;;10.97;3.40;;;;;;;;;;4968186;28;20209;-80
2023/09/18 07:32:05;;;;;;;7.87;3.27;;;;;;;;;;4968221;28;20268;-80
2023/09/18 07:34:32;;;;;;;10.50;3.33;;;;;;;;;;4955399;28;20646;-80
2023/09/18 07:36:58;;;;;;;6.27;3.50;;;;;;;;;;4952466;29;20205;-80
2023/09/18 07:39:24;;;;;;;8.03;3.30;;;;;;;;;;4950474;28;20729;-79
2023/09/18 07:41:52;;;;;;;9.90;3.33;;;;;;;;;;4951845;29;20184;-80
2023/09/18 07:44:22;;;;;;;9.27;3.27;;;;;;;;;;4951150;28;20256;-80
2023/09/18 07:46:48;;;;;;;10.27;3.17;;;;;;;;;;4951119;29;20189;-81
2023/09/18 07:49:14;;;;;;;5.33;2.50;;;;;;;;;;4950116;28;20189;-81
2023/09/18 07:51:40;;;;;;;8.50;2.80;;;;;;;;;;4942817;29;20269;-80
2023/09/18 07:54:08;;;;;;;9.13;2.83;;;;;;;;;;4951321;29;20205;-77
2023/09/18 07:56:36;;;;;;;7.27;2.83;;;;;;;;;;4949716;29;20193;-81
2023/09/18 07:59:02;;;;;;;8.40;2.63;;;;;;;;;;4959618;28;20193;-80
2023/09/18 08:01:31;;;;;;;7.17;2.20;;;;;;;;;;4946371;29;20244;-77
2023/09/18 08:03:59;;;;;;;6.23;2.20;;;;;;;;;;4952897;28;20260;-85
2023/09/18 08:06:26;;;;;;;6.33;2.40;;;;;;;;;;4934880;29;20177;-79
2023/09/18 08:08:53;;;;;;;7.00;2.00;;;;;;;;;;4952361;28;20228;-80
2023/09/18 08:11:19;;;;;;;4.53;2.00;;;;;;;;;;4964570;28;20648;-80
2023/09/18 08:13:45;;;;;;;3.70;1.70;;;;;;;;;;4948766;29;20177;-80
2023/09/18 08:16:12;;;;;;;6.40;1.87;;;;;;;;;;4947550;29;20264;-80
2023/09/18 08:18:41;;;;;;;5.77;2.00;;;;;;;;;;4947738;29;20205;-80
2023/09/18 08:21:09;;;;;;;6.83;1.93;;;;;;;;;;4950335;28;20196;-80
2023/09/18 08:23:38;;;;;;;6.10;1.90;;;;;;;;;;4946559;28;20546;-80
2023/09/18 08:26:04;;;;;;;5.57;2.00;;;;;;;;;;4947932;28;20204;-80
2023/09/18 08:28:30;;;;;;;5.03;1.80;;;;;;;;;;4930849;29;20301;-80
2023/09/18 08:30:58;;;;;;;8.10;1.70;;;;;;;;;;4949775;29;20257;-80
2023/09/18 08:33:25;;;;;;;4.73;1.80;;;;;;;;;;4952858;28;20261;-80
2023/09/18 08:35:51;;;;;;;5.07;1.60;;;;;;;;;;4953616;29;20252;-79
2023/09/18 08:38:17;;;;;;;4.87;1.70;;;;;;;;;;4950862;29;20244;-80
2023/09/18 08:40:43;;;;;;;4.20;1.70;;;;;;;;;;4952707;29;20193;-79
2023/09/18 08:43:11;;;;;;;3.40;1.80;;;;;;;;;;4952939;29;20189;-80
2023/09/18 08:45:47;;;;;;;3.87;1.87;;;;;;;;;;4952678;29;20213;-80
2023/09/18 08:48:13;;;;;;;4.27;1.80;;;;;;;;;;4967344;28;20241;-80
2023/09/18 08:50:40;;;;;;;4.30;1.77;;;;;;;;;;4954375;28;20193;-79
2023/09/18 08:53:07;;;;;;;7.60;2.10;;;;;;;;;;4956586;28;20697;-80
2023/09/18 08:55:34;;;;;;;4.13;2.13;;;;;;;;;;4956633;28;20181;-80
2023/09/18 08:58:01;;;;;;;4.73;1.73;;;;;;;;;;4943835;29;20244;-79
2023/09/18 09:00:27;;;;;;;5.33;1.80;;;;;;;;;;4953956;28;20326;-79
2023/09/18 09:02:54;;;;;;;4.70;2.03;;;;;;;;;;4954058;29;20185;-79
2023/09/18 09:05:21;;;;;;;4.33;1.70;;;;;;;;;;4955731;28;20213;-79
2023/09/18 09:07:47;;;;;;;4.87;1.80;;;;;;;;;;4951409;29;20354;-79
2023/09/18 09:10:13;;;;;;;4.23;1.83;;;;;;;;;;4955763;28;20181;-79
2023/09/18 09:12:53;;;;;;;4.90;2.03;;;;;;;;;;4956277;28;20181;-79
2023/09/18 09:15:20;;;;;;;4.67;1.60;;;;;;;;;;4955322;29;20185;-79
2023/09/18 09:17:46;;;;;;;4.67;1.93;;;;;;;;;;4951878;29;20244;-79
2023/09/18 09:20:13;;;;;;;6.20;1.67;;;;;;;;;;4953823;29;20244;-78
2023/09/18 09:22:40;;;;;;;4.03;1.80;;;;;;;;;;4939985;29;20619;-79
2023/09/18 09:25:21;;;;;;;4.57;1.97;;;;;;;;;;4955140;28;20220;-79
2023/09/18 09:27:48;;;;;;;3.50;1.80;;;;;;;;;;4937876;29;20549;-79
2023/09/18 09:30:21;;;;;;;5.30;1.70;;;;;;;;;;4953500;29;20274;-79
2023/09/18 09:32:54;;;;;;;4.27;1.77;;;;;;;;;;4955125;29;20585;-79
2023/09/18 09:35:28;;;;;;;3.13;1.60;;;;;;;;;;4954717;28;20272;-78
2023/09/18 09:37:55;;;;;;;3.87;1.70;;;;;;;;;;4954553;28;20213;-79
2023/09/18 09:40:22;;;;;;;3.57;1.50;;;;;;;;;;4954672;29;20191;-79
2023/09/18 09:42:48;;;;;;;5.07;1.73;;;;;;;;;;4953789;29;20200;-79
2023/09/18 09:45:16;;;;;;;3.73;1.77;;;;;;;;;;4954576;28;20715;-79
2023/09/18 09:47:42;;;;;;;6.10;1.80;;;;;;;;;;4953438;29;20223;-79
2023/09/18 09:50:10;;;;;;;5.33;1.87;;;;;;;;;;4954325;28;20189;-79
2023/09/18 09:52:37;;;;;;;3.47;1.70;;;;;;;;;;4953467;29;20602;-79
2023/09/18 09:55:06;;;;;;;4.37;1.57;;;;;;;;;;4954625;28;20189;-79
2023/09/18 09:57:47;;;;;;;2.37;1.50;;;;;;;;;;4948068;29;20589;-79
2023/09/18 10:00:26;;;;;;;5.43;1.80;;;;;;;;;;4951933;29;20574;-79
2023/09/18 10:02:54;;;;;;;5.47;1.87;;;;;;;;;;4954031;28;20189;-79
2023/09/18 10:05:21;;;;;;;5.23;1.60;;;;;;;;;;4954320;28;20700;-79
2023/09/18 10:07:47;;;;;;;4.10;1.57;;;;;;;;;;4952714;29;20577;-79
2023/09/18 10:10:13;;;;;;;5.50;1.80;;;;;;;;;;4954099;28;20189;-79
2023/09/18 10:12:40;;;;;;;3.43;1.77;;;;;;;;;;4954548;29;20185;-79
2023/09/18 10:15:09;;;;;;;6.70;1.50;;;;;;;;;;4954123;29;20197;-79
2023/09/18 10:17:37;;;;;;;3.27;1.70;;;;;;;;;;4953765;28;20668;-79
2023/09/18 10:20:10;;;;;;;5.90;1.73;;;;;;;;;;4953893;29;20205;-79
2023/09/18 10:22:42;;;;;;;3.37;1.53;;;;;;;;;;4949877;29;20185;-79
2023/09/18 10:25:17;;;;;;;2.83;1.57;;;;;;;;;;4953953;29;20303;-79
2023/09/18 10:27:44;;;;;;;2.47;1.40;;;;;;;;;;4968728;28;20208;-79
2023/09/18 10:30:11;;;;;;;3.33;1.47;;;;;;;;;;4953670;28;20305;-79
2023/09/18 10:32:39;;;;;;;3.03;1.50;;;;;;;;;;4954106;28;20265;-79
2023/09/18 10:35:05;;;;;;;3.30;1.60;;;;;;;;;;4953947;29;20205;-78
2023/09/18 10:37:32;;;;;;;5.50;1.67;;;;;;;;;;4952904;29;20621;-79
2023/09/18 10:39:59;;;;;;;3.47;1.70;;;;;;;;;;4952318;29;20315;-78
2023/09/18 10:42:27;;;;;;;3.87;1.40;;;;;;;;;;4953731;28;20577;-79
2023/09/18 10:44:53;;;;;;;6.50;1.63;;;;;;;;;;4953617;28;20219;-78
2023/09/18 10:47:20;;;;;;;2.73;1.40;;;;;;;;;;4955635;29;20971;-78
2023/09/18 10:49:46;;;;;;;4.50;1.70;;;;;;;;;;4955983;29;20193;-77
2023/09/18 10:52:13;;;;;;;3.47;1.57;;;;;;;;;;4955773;29;20264;-78
2023/09/18 10:54:40;;;;;;;4.73;1.60;;;;;;;;;;4955865;28;20185;-78
2023/09/18 10:57:06;;;;;;;2.53;1.43;;;;;;;;;;4955082;28;20206;-78
2023/09/18 10:59:33;;;;;;;3.93;1.70;;;;;;;;;;4955292;28;20366;-78
2023/09/18 11:02:05;;;;;;;4.73;1.70;;;;;;;;;;4958582;28;20194;-77
2023/09/18 11:04:32;;;;;;;4.07;1.60;;;;;;;;;;4957353;28;20207;-77
2023/09/18 11:06:59;;;;;;;4.77;1.50;;;;;;;;;;4956410;29;20214;-77
2023/09/18 11:09:26;;;;;;;2.47;1.50;;;;;;;;;;4956827;28;20234;-77
2023/09/18 11:11:57;;;;;;;3.63;1.57;;;;;;;;;;4956266;29;20197;-77
2023/09/18 11:14:24;;;;;;;4.83;1.80;;;;;;;;;;4954064;28;20578;-78
2023/09/18 11:16:50;;;;;;;4.43;1.70;;;;;;;;;;4955018;29;20209;-78
2023/09/18 11:19:20;;;;;;;5.97;1.73;;;;;;;;;;4953757;29;20212;-78
2023/09/18 11:21:46;;;;;;;2.80;1.60;;;;;;;;;;4953766;28;20211;-78
2023/09/18 11:24:20;;;;;;;3.70;1.80;;;;;;;;;;4952283;29;20217;-80
2023/09/18 11:26:47;;;;;;;4.07;1.70;;;;;;;;;;4949327;29;20185;-79
2023/09/18 11:29:21;;;;;;;3.80;1.80;;;;;;;;;;4953091;29;20192;-80
2023/09/18 11:31:50;;;;;;;5.63;1.80;;;;;;;;;;4950477;29;20195;-80
2023/09/18 11:34:23;;;;;;;3.93;1.70;;;;;;;;;;4953441;28;20188;-81
2023/09/18 11:36:49;;;;;;;5.17;1.60;;;;;;;;;;4952030;29;20203;-78
2023/09/18 11:39:35;;;;;;;3.20;1.47;;;;;;;;;;4952215;29;20193;-79
2023/09/18 11:42:18;;;;;;;5.77;1.60;;;;;;;;;;4952054;29;20194;-79
2023/09/18 11:44:47;;;;;;;4.37;1.67;;;;;;;;;;4950690;29;20207;-78
2023/09/18 11:47:19;;;;;;;3.23;1.50;;;;;;;;;;4952873;29;20208;-80
2023/09/18 11:49:53;;;;;;;4.83;1.90;;;;;;;;;;4951949;28;20301;-80
2023/09/18 11:52:19;;;;;;;4.17;1.83;;;;;;;;;;4952716;28;20181;-79
2023/09/18 11:54:46;;;;;;;4.63;1.50;;;;;;;;;;4967388;28;20189;-79
2023/09/18 11:57:13;;;;;;;3.83;1.60;;;;;;;;;;4927927;29;20702;-79
2023/09/18 11:59:42;;;;;;;5.03;1.70;;;;;;;;;;4952510;28;20360;-79
2023/09/18 12:02:08;;;;;;;3.93;1.50;;;;;;;;;;4953368;28;20188;-80
2023/09/18 12:04:35;;;;;;;3.23;1.63;;;;;;;;;;4953294;28;20207;-79
2023/09/18 12:07:02;;;;;;;3.43;1.47;;;;;;;;;;4952971;28;20220;-79
2023/09/18 12:09:33;;;;;;;3.87;1.77;;;;;;;;;;4952671;28;20591;-79
2023/09/18 12:12:03;;;;;;;4.20;1.80;;;;;;;;;;4954567;29;20185;-79
2023/09/18 12:14:33;;;;;;;3.83;1.70;;;;;;;;;;4954908;28;20197;-80
2023/09/18 12:17:00;;;;;;;4.57;1.70;;;;;;;;;;4954890;28;20275;-80
2023/09/18 12:19:27;;;;;;;3.70;1.60;;;;;;;;;;4955272;28;20193;-79
2023/09/18 12:21:53;;;;;;;3.23;1.50;;;;;;;;;;4954582;29;20204;-80
2023/09/18 12:24:22;;;;;;;3.57;1.70;;;;;;;;;;4938519;28;20296;-80
2023/09/18 12:26:49;;;;;;;4.00;1.33;;;;;;;;;;4957996;29;20187;-80
2023/09/18 12:29:15;;;;;;;4.87;2.00;;;;;;;;;;4957928;28;20248;-80
2023/09/18 12:31:42;;;;;;;5.83;1.87;;;;;;;;;;4972878;28;20185;-80
2023/09/18 12:34:15;;;;;;;3.30;1.50;;;;;;;;;;4958029;28;20276;-80
2023/09/18 12:36:43;;;;;;;3.57;1.60;;;;;;;;;;4958185;28;20188;-81
2023/09/18 12:39:10;;;;;;;3.20;1.60;;;;;;;;;;4956522;29;20181;-80
2023/09/18 12:41:37;;;;;;;2.97;1.60;;;;;;;;;;4958377;28;20258;-80
2023/09/18 12:44:03;;;;;;;3.70;1.50;;;;;;;;;;4953915;29;20184;-80
2023/09/18 12:46:30;;;;;;;3.33;1.50;;;;;;;;;;4958265;28;20283;-80
2023/09/18 12:48:56;;;;;;;3.07;1.80;;;;;;;;;;4957709;28;20783;-80
2023/09/18 12:51:31;;;;;;;4.10;1.60;;;;;;;;;;4962845;29;20661;-80
2023/09/18 12:54:00;;;;;;;2.43;1.50;;;;;;;;;;4959883;28;20204;-80
2023/09/18 12:56:27;;;;;;;4.37;1.47;;;;;;;;;;4958896;28;20668;-80
2023/09/18 12:58:53;;;;;;;5.87;1.90;;;;;;;;;;4956460;29;20209;-80
2023/09/18 13:01:19;;;;;;;2.57;1.43;;;;;;;;;;4958696;28;20217;-80
2023/09/18 13:03:46;;;;;;;3.07;1.50;;;;;;;;;;4958242;28;20189;-80
2023/09/18 13:06:18;;;;;;;4.13;1.70;;;;;;;;;;4958150;29;20220;-80
2023/09/18 13:08:45;;;;;;;3.63;1.50;;;;;;;;;;4957388;29;20197;-81
2023/09/18 13:11:14;;;;;;;3.47;1.57;;;;;;;;;;4958072;28;20197;-80
2023/09/18 13:13:40;;;;;;;4.10;1.40;;;;;;;;;;4956906;28;20255;-81
2023/09/18 13:16:10;;;;;;;6.57;1.40;;;;;;;;;;4956598;28;20196;-78
2023/09/18 13:18:39;;;;;;;3.47;1.43;;;;;;;;;;4957374;28;20574;-82
2023/09/18 13:21:13;;;;;;;3.60;1.63;;;;;;;;;;4957432;28;20200;-78
2023/09/18 13:23:40;;;;;;;3.07;1.60;;;;;;;;;;4954970;28;20332;-78
2023/09/18 13:26:07;;;;;;;2.97;1.57;;;;;;;;;;4954741;29;20238;-78
2023/09/18 13:28:35;;;;;;;3.03;1.47;;;;;;;;;;4952386;28;20244;-78
2023/09/18 13:31:04;;;;;;;5.07;1.70;;;;;;;;;;4954471;28;20188;-79
2023/09/18 13:33:32;;;;;;;6.57;1.80;;;;;;;;;;4954888;28;20252;-80
2023/09/18 13:36:00;;;;;;;4.07;1.53;;;;;;;;;;4955049;28;20227;-79
2023/09/18 13:38:26;;;;;;;2.40;1.60;;;;;;;;;;4956155;29;20735;-79
2023/09/18 13:40:54;;;;;;;2.70;1.60;;;;;;;;;;4954909;29;20193;-83
2023/09/18 13:43:22;;;;;;;5.20;1.73;;;;;;;;;;4948153;29;20208;-81
2023/09/18 13:45:52;;;;;;;3.40;1.57;;;;;;;;;;4956054;28;20224;-81
2023/09/18 13:48:18;;;;;;;2.23;1.50;;;;;;;;;;4955152;29;20201;-81
2023/09/18 13:50:46;;;;;;;2.63;1.33;;;;;;;;;;4957612;28;20186;-81
2023/09/18 13:53:12;;;;;;;3.50;1.30;;;;;;;;;;4942389;29;20309;-80
2023/09/18 13:55:38;;;;;;;5.83;1.70;;;;;;;;;;4970060;28;20228;-80
2023/09/18 13:58:04;;;;;;;2.53;1.53;;;;;;;;;;4955496;29;20205;-80
2023/09/18 14:00:31;;;;;;;3.30;1.47;;;;;;;;;;4955872;28;20188;-87
2023/09/18 14:02:57;;;;;;;3.23;1.43;;;;;;;;;;4970520;28;20255;-80
2023/09/18 14:05:23;;;;;;;2.90;1.30;;;;;;;;;;4968765;28;20220;-80
2023/09/18 14:07:49;;;;;;;3.07;1.70;;;;;;;;;;4955806;28;20201;-80
2023/09/18 14:10:18;;;;;;;1.90;1.30;;;;;;;;;;4956564;29;20196;-80
2023/09/18 14:12:44;;;;;;;1.90;1.40;;;;;;;;;;4956338;28;20193;-79
2023/09/18 14:15:11;;;;;;;2.40;1.20;;;;;;;;;;4955340;28;20185;-80
2023/09/18 14:17:38;;;;;;;2.27;1.53;;;;;;;;;;4950766;29;20728;-80
2023/09/18 14:20:06;;;;;;;5.40;1.20;;;;;;;;;;4955297;29;20209;-80
2023/09/18 14:22:32;;;;;;;3.67;1.30;;;;;;;;;;4954487;29;20200;-80
2023/09/18 14:24:59;;;;;;;3.87;1.50;;;;;;;;;;4955320;28;20214;-80
2023/09/18 14:27:25;;;;;;;2.90;1.70;;;;;;;;;;4956055;29;20232;-80
2023/09/18 14:29:51;;;;;;;3.57;1.50;;;;;;;;;;4956596;28;20280;-80
2023/09/18 14:32:17;;;;;;;3.47;1.60;;;;;;;;;;4956216;29;20215;-80
2023/09/18 14:34:45;;;;;;;2.63;1.43;;;;;;;;;;4955907;29;20189;-80
2023/09/18 14:37:11;;;;;;;2.03;1.37;;;;;;;;;;4954807;29;20208;-80
2023/09/18 14:39:38;;;;;;;4.07;1.47;;;;;;;;;;4954880;29;20177;-80
2023/09/18 14:42:04;;;;;;;2.93;1.33;;;;;;;;;;4955046;28;20188;-80
2023/09/18 14:44:30;;;;;;;3.70;1.70;;;;;;;;;;4954091;29;20212;-80